Time;durP1;ratioP1;P1;durP2;ratioP2;P2;SDS_P1;SDS_P2;PMS_P1;PMS_P2;Temp;Humidity;BMP_temperature;BMP_pressure;BME280_temperature;BME280_humidity;BME280_pressure;Samples;Min_cycle;Max_cycle;Signal;HPM_P1;HPM_P2
2022/03/29 00:02:15;;;;;;;27.27;17.77;;;7.10;99.90;;;;;;4915245;29;20759;-62
2022/03/29 00:04:43;;;;;;;31.30;19.30;;;7.10;99.90;;;;;;4914873;29;20582;-63
2022/03/29 00:07:13;;;;;;;30.03;19.70;;;7.00;99.90;;;;;;4914324;29;20244;-62
2022/03/29 00:09:41;;;;;;;29.20;20.23;;;7.00;99.90;;;;;;4923803;29;20658;-62
2022/03/29 00:12:09;;;;;;;27.60;19.20;;;7.00;99.90;;;;;;4933995;29;20240;-63
2022/03/29 00:14:38;;;;;;;29.47;19.47;;;7.00;99.90;;;;;;4925327;29;20240;-62
2022/03/29 00:17:07;;;;;;;28.23;19.10;;;7.10;99.90;;;;;;4914994;29;20272;-62
2022/03/29 00:19:35;;;;;;;30.70;19.63;;;7.10;99.90;;;;;;4917406;29;20327;-63
2022/03/29 00:22:03;;;;;;;27.77;19.10;;;7.10;99.90;;;;;;4914671;29;20241;-64
2022/03/29 00:24:33;;;;;;;24.43;18.33;;;7.10;99.90;;;;;;4915165;29;20240;-62
2022/03/29 00:27:01;;;;;;;27.87;20.27;;;7.10;99.90;;;;;;4914837;29;20248;-62
2022/03/29 00:29:29;;;;;;;29.93;19.53;;;7.00;99.90;;;;;;4898024;29;20240;-62
2022/03/29 00:31:57;;;;;;;26.73;19.80;;;7.00;99.90;;;;;;4914844;29;20243;-62
2022/03/29 00:34:26;;;;;;;28.47;20.20;;;7.00;99.90;;;;;;4914689;29;20247;-63
2022/03/29 00:36:54;;;;;;;31.87;19.93;;;7.00;99.90;;;;;;4914876;29;20240;-62
2022/03/29 00:39:22;;;;;;;31.73;19.03;;;7.00;99.90;;;;;;4921061;29;20236;-63
2022/03/29 00:41:52;;;;;;;29.80;20.17;;;7.10;99.90;;;;;;4933438;29;20244;-62
2022/03/29 00:44:29;;;;;;;29.80;19.20;;;7.10;99.90;;;;;;4927320;29;20339;-62
2022/03/29 00:46:58;;;;;;;31.40;20.00;;;7.00;99.90;;;;;;4914419;29;20240;-63
2022/03/29 00:49:26;;;;;;;28.10;19.70;;;7.00;99.90;;;;;;4914423;29;20239;-63
2022/03/29 00:51:58;;;;;;;30.80;20.77;;;7.00;99.90;;;;;;4914373;29;20316;-62
2022/03/29 00:54:27;;;;;;;30.30;20.63;;;6.90;99.90;;;;;;4921110;29;20323;-63
2022/03/29 00:56:57;;;;;;;30.47;20.93;;;6.90;99.90;;;;;;4933524;29;20242;-62
2022/03/29 00:59:26;;;;;;;32.13;21.20;;;7.00;99.90;;;;;;4923491;29;20719;-63
2022/03/29 01:01:56;;;;;;;32.13;20.90;;;6.90;99.90;;;;;;4933481;29;20232;-63
2022/03/29 01:04:25;;;;;;;28.47;20.30;;;6.90;99.90;;;;;;4923530;29;20244;-63
2022/03/29 01:06:57;;;;;;;32.33;20.40;;;6.90;99.90;;;;;;4910417;29;20240;-63
2022/03/29 01:09:26;;;;;;;33.30;20.93;;;6.80;99.90;;;;;;4896123;29;20244;-63
2022/03/29 01:11:54;;;;;;;33.90;20.43;;;6.80;99.90;;;;;;4916937;29;20200;-63
2022/03/29 01:14:25;;;;;;;37.03;21.20;;;6.80;99.90;;;;;;4921064;29;20251;-63
2022/03/29 01:19:41;;;;;;;33.27;22.00;;;6.90;99.90;;;;;;4921002;29;20325;-62
2022/03/29 01:22:12;;;;;;;27.27;19.90;;;6.90;99.90;;;;;;4913969;29;20228;-63
2022/03/29 01:24:43;;;;;;;32.60;19.63;;;6.90;99.90;;;;;;4922925;29;20235;-62
2022/03/29 01:27:14;;;;;;;31.80;20.43;;;6.90;99.90;;;;;;4933335;29;20258;-63
2022/03/29 01:29:43;;;;;;;33.70;20.07;;;7.00;99.90;;;;;;4932597;29;20270;-62
2022/03/29 01:32:12;;;;;;;29.53;19.03;;;6.90;99.90;;;;;;4933048;29;20235;-62
2022/03/29 01:34:43;;;;;;;32.47;21.70;;;7.00;99.90;;;;;;4919360;29;20256;-63
2022/03/29 01:37:13;;;;;;;35.57;21.00;;;7.00;99.90;;;;;;4914022;29;20718;-62
2022/03/29 01:39:41;;;;;;;32.43;19.40;;;7.00;99.90;;;;;;4913859;29;20243;-62
2022/03/29 01:42:10;;;;;;;30.77;19.07;;;7.00;99.90;;;;;;4914078;29;20296;-62
2022/03/29 01:44:38;;;;;;;35.87;21.53;;;7.10;99.90;;;;;;4914324;29;20240;-62
2022/03/29 01:47:07;;;;;;;31.90;20.70;;;7.00;99.90;;;;;;4914182;29;20743;-63
2022/03/29 01:49:35;;;;;;;33.70;20.77;;;7.00;99.90;;;;;;4922241;29;20243;-63
2022/03/29 01:52:05;;;;;;;30.87;21.00;;;7.00;99.90;;;;;;4932797;29;20291;-63
2022/03/29 01:54:34;;;;;;;32.60;20.37;;;7.00;99.90;;;;;;4920324;29;20233;-63
2022/03/29 01:57:03;;;;;;;33.70;20.43;;;7.10;99.90;;;;;;4913791;29;20304;-62
2022/03/29 02:00:30;;;;;;;32.97;20.27;;;7.10;99.90;;;;;;4914726;29;20244;-62
2022/03/29 02:02:19;;;;;;;29.57;20.07;;;7.10;99.90;;;;;;4917903;29;20251;-62
2022/03/29 02:04:47;;;;;;;37.13;20.50;;;7.00;99.90;;;;;;4927164;29;20240;-63
2022/03/29 02:07:16;;;;;;;30.87;19.87;;;7.00;99.90;;;;;;4936732;29;20235;-63
2022/03/29 02:09:46;;;;;;;31.97;19.83;;;7.00;99.90;;;;;;4926435;29;20242;-63
2022/03/29 02:12:14;;;;;;;31.90;19.30;;;7.00;99.90;;;;;;4917334;29;20327;-63
2022/03/29 02:14:42;;;;;;;33.03;19.70;;;6.90;99.90;;;;;;4918490;29;20245;-62
2022/03/29 02:17:10;;;;;;;33.80;19.07;;;6.90;99.90;;;;;;4916944;29;21725;-62
2022/03/29 02:19:38;;;;;;;32.60;18.80;;;6.90;99.90;;;;;;4916907;29;20240;-62
2022/03/29 02:22:06;;;;;;;31.73;18.90;;;6.90;99.90;;;;;;4917017;29;20241;-62
2022/03/29 02:24:35;;;;;;;30.87;17.73;;;6.90;99.90;;;;;;4925094;29;20243;-62
2022/03/29 02:27:04;;;;;;;31.53;18.63;;;6.90;99.90;;;;;;4936185;29;20298;-62
2022/03/29 02:29:34;;;;;;;29.67;17.83;;;6.90;99.90;;;;;;4928012;29;20590;-62
2022/03/29 02:32:02;;;;;;;26.73;17.90;;;6.90;99.90;;;;;;4917006;29;20335;-62
2022/03/29 02:34:30;;;;;;;28.77;17.97;;;7.00;99.90;;;;;;4916627;29;20300;-62
2022/03/29 02:36:58;;;;;;;30.63;18.67;;;7.00;99.90;;;;;;4916767;29;20236;-62
2022/03/29 02:39:26;;;;;;;29.10;17.60;;;7.00;99.90;;;;;;4923554;29;20266;-63
2022/03/29 02:41:55;;;;;;;24.53;16.97;;;7.00;99.90;;;;;;4935706;29;20247;-62
2022/03/29 02:44:24;;;;;;;28.37;17.03;;;7.00;99.90;;;;;;4926125;29;20240;-63
2022/03/29 02:46:52;;;;;;;24.87;17.23;;;6.90;99.90;;;;;;4916667;29;20260;-62
2022/03/29 02:49:20;;;;;;;29.47;18.23;;;6.90;99.90;;;;;;4917149;29;20608;-62
2022/03/29 02:51:49;;;;;;;33.87;17.60;;;6.90;99.90;;;;;;4916611;29;20288;-62
2022/03/29 02:54:17;;;;;;;29.43;16.30;;;6.90;99.90;;;;;;4916643;29;20244;-62
2022/03/29 02:56:45;;;;;;;29.30;18.00;;;6.90;99.90;;;;;;4916272;29;20244;-62
2022/03/29 02:59:14;;;;;;;28.60;17.90;;;6.90;99.90;;;;;;4921609;29;20236;-63
2022/03/29 03:01:44;;;;;;;27.70;17.37;;;6.90;99.90;;;;;;4935419;29;20247;-63
2022/03/29 03:04:13;;;;;;;30.63;17.07;;;6.90;99.90;;;;;;4930170;29;20240;-62
2022/03/29 03:06:41;;;;;;;26.47;16.93;;;6.90;99.90;;;;;;4916273;29;20709;-62
2022/03/29 03:09:10;;;;;;;28.63;17.63;;;6.90;99.90;;;;;;4920859;29;20247;-62
2022/03/29 03:11:38;;;;;;;26.97;17.13;;;6.90;99.90;;;;;;4933732;29;20243;-62
2022/03/29 03:14:06;;;;;;;31.07;18.43;;;6.90;99.90;;;;;;4926040;29;20327;-63
2022/03/29 03:16:34;;;;;;;30.60;17.23;;;6.90;99.90;;;;;;4915968;29;20292;-62
2022/03/29 03:19:23;;;;;;;25.97;16.73;;;6.90;99.90;;;;;;4924961;29;20240;-62
2022/03/29 03:21:52;;;;;;;28.40;16.70;;;6.90;99.90;;;;;;4935080;29;20248;-62
2022/03/29 03:24:20;;;;;;;25.60;16.87;;;6.90;99.90;;;;;;4929452;29;20284;-62
2022/03/29 03:26:48;;;;;;;29.53;17.73;;;6.90;99.90;;;;;;4916128;29;20237;-62
2022/03/29 03:29:16;;;;;;;24.37;15.70;;;6.90;99.90;;;;;;4915898;29;20244;-62
2022/03/29 03:31:44;;;;;;;21.30;12.80;;;6.80;99.90;;;;;;4915756;29;20272;-63
2022/03/29 03:34:12;;;;;;;20.77;9.07;;;6.80;99.90;;;;;;4915751;29;20237;-62
2022/03/29 03:36:42;;;;;;;24.37;8.57;;;6.70;99.90;;;;;;4915703;29;20666;-63
2022/03/29 03:39:10;;;;;;;18.40;6.60;;;6.70;99.90;;;;;;4915471;29;20353;-63
2022/03/29 03:41:40;;;;;;;18.47;5.33;;;6.60;99.90;;;;;;4915715;29;20332;-62
2022/03/29 03:44:09;;;;;;;25.43;5.57;;;6.60;99.90;;;;;;4915367;29;20332;-62
2022/03/29 03:46:37;;;;;;;16.50;5.03;;;6.50;99.90;;;;;;4915385;29;20245;-62
2022/03/29 03:49:05;;;;;;;19.60;5.20;;;6.50;99.90;;;;;;4915606;29;20252;-62
2022/03/29 03:51:34;;;;;;;21.97;5.03;;;6.50;99.90;;;;;;4915508;29;20248;-63
2022/03/29 03:54:03;;;;;;;16.97;4.77;;;6.50;99.90;;;;;;4915323;29;20616;-62
2022/03/29 03:56:31;;;;;;;20.33;4.37;;;6.40;99.90;;;;;;4915229;29;20319;-62
2022/03/29 03:58:59;;;;;;;22.93;5.00;;;6.40;99.90;;;;;;4915158;29;20240;-62
2022/03/29 04:01:28;;;;;;;17.50;3.70;;;6.40;99.90;;;;;;4915373;29;20236;-61
2022/03/29 04:03:57;;;;;;;26.02;5.60;;;6.30;99.90;;;;;;4917190;29;20437;-61
2022/03/29 04:06:25;;;;;;;22.50;4.30;;;6.30;99.90;;;;;;4934236;29;20330;-61
2022/03/29 04:08:53;;;;;;;21.20;4.43;;;6.30;99.90;;;;;;4931237;29;20257;-61
2022/03/29 04:11:22;;;;;;;17.03;4.30;;;6.30;99.90;;;;;;4915189;29;20232;-62
2022/03/29 04:13:51;;;;;;;16.73;3.57;;;6.30;99.90;;;;;;4917064;29;20705;-62
2022/03/29 04:16:20;;;;;;;18.70;4.23;;;6.30;99.90;;;;;;4934555;29;20239;-61
2022/03/29 04:18:48;;;;;;;24.73;4.80;;;6.30;99.90;;;;;;4916744;29;20345;-61
2022/03/29 04:21:16;;;;;;;21.30;4.10;;;6.20;99.90;;;;;;4914462;29;20237;-61
2022/03/29 04:23:44;;;;;;;18.83;3.50;;;6.20;99.90;;;;;;4914240;29;20252;-61
2022/03/29 04:26:12;;;;;;;16.83;4.10;;;6.20;99.90;;;;;;4914786;29;20243;-62
2022/03/29 04:28:42;;;;;;;22.93;4.33;;;6.10;99.90;;;;;;4915493;29;20270;-62
2022/03/29 04:31:10;;;;;;;22.20;3.77;;;6.10;99.90;;;;;;4933922;29;20244;-61
2022/03/29 04:33:40;;;;;;;21.73;3.97;;;6.10;99.90;;;;;;4926249;29;20658;-61
2022/03/29 04:36:08;;;;;;;17.20;3.73;;;6.00;99.90;;;;;;4916546;29;20712;-61
2022/03/29 04:38:36;;;;;;;18.60;3.53;;;5.90;99.90;;;;;;4914460;29;20438;-61
2022/03/29 04:41:05;;;;;;;22.57;4.57;;;5.90;99.90;;;;;;4914700;29;20272;-60
2022/03/29 04:43:34;;;;;;;18.73;3.87;;;5.90;99.90;;;;;;4914276;29;20263;-61
2022/03/29 04:46:03;;;;;;;20.37;4.40;;;5.90;99.90;;;;;;4914543;29;20252;-61
2022/03/29 04:48:32;;;;;;;21.20;3.90;;;5.90;99.90;;;;;;4914379;29;20232;-61
2022/03/29 04:51:00;;;;;;;26.70;4.00;;;5.90;99.90;;;;;;4895640;29;20241;-61
2022/03/29 04:53:28;;;;;;;22.60;4.13;;;6.00;99.90;;;;;;4899172;29;20236;-61
2022/03/29 04:55:56;;;;;;;20.07;3.70;;;5.90;99.90;;;;;;4913807;29;20583;-61
2022/03/29 04:58:25;;;;;;;17.83;3.50;;;5.80;99.90;;;;;;4914491;29;20291;-61
2022/03/29 05:00:53;;;;;;;21.17;3.03;;;5.70;99.90;;;;;;4922790;29;20240;-61
2022/03/29 05:03:23;;;;;;;17.73;3.43;;;5.70;99.90;;;;;;4914675;29;20268;-61
2022/03/29 05:05:51;;;;;;;23.53;4.17;;;5.80;99.90;;;;;;4914001;29;20326;-61
2022/03/29 05:08:19;;;;;;;22.70;4.50;;;6.00;99.90;;;;;;4914166;29;20561;-62
2022/03/29 05:10:47;;;;;;;15.80;3.10;;;6.00;99.90;;;;;;4915259;29;20245;-61
2022/03/29 05:13:17;;;;;;;21.93;4.37;;;6.10;99.90;;;;;;4914027;29;20492;-62
2022/03/29 05:15:45;;;;;;;22.20;4.73;;;6.00;99.90;;;;;;4913768;29;20240;-62
2022/03/29 05:18:13;;;;;;;28.53;4.80;;;6.20;99.90;;;;;;4914137;29;20244;-61
2022/03/29 05:20:43;;;;;;;21.87;3.97;;;6.10;99.90;;;;;;4913777;29;20256;-61
2022/03/29 05:23:11;;;;;;;16.17;3.27;;;6.00;99.90;;;;;;4913990;29;20712;-61
2022/03/29 05:25:39;;;;;;;19.03;4.27;;;6.10;99.90;;;;;;4913444;29;20315;-61
2022/03/29 05:28:09;;;;;;;20.40;4.77;;;6.00;99.90;;;;;;4913994;29;20723;-61
2022/03/29 05:30:37;;;;;;;20.90;3.73;;;5.90;99.90;;;;;;4930054;29;20648;-61
2022/03/29 05:33:06;;;;;;;28.00;5.23;;;5.90;99.90;;;;;;4931438;29;20251;-61
2022/03/29 05:35:34;;;;;;;26.17;3.90;;;6.00;99.90;;;;;;4915377;29;20243;-61
2022/03/29 05:38:04;;;;;;;28.37;4.87;;;6.40;99.90;;;;;;4917129;29;20254;-61
2022/03/29 05:40:35;;;;;;;21.07;4.70;;;6.50;99.90;;;;;;4917512;29;20244;-61
2022/03/29 05:43:03;;;;;;;19.87;4.37;;;6.70;99.90;;;;;;4917753;29;20244;-62
2022/03/29 05:45:32;;;;;;;15.10;3.73;;;6.70;99.90;;;;;;4917228;29;20476;-61
2022/03/29 05:50:48;;;;;;;15.83;4.27;;;7.10;99.90;;;;;;4910766;29;20244;-61
2022/03/29 05:53:17;;;;;;;17.40;3.33;;;7.10;99.90;;;;;;4934396;29;20228;-61
2022/03/29 05:55:48;;;;;;;17.63;4.03;;;7.00;99.90;;;;;;4917321;29;20307;-61
2022/03/29 05:58:17;;;;;;;18.83;4.03;;;7.00;99.90;;;;;;4917818;29;20603;-62
2022/03/29 06:00:45;;;;;;;19.13;4.33;;;7.00;99.90;;;;;;4934526;29;20312;-61
2022/03/29 06:03:13;;;;;;;12.60;3.60;;;7.00;99.90;;;;;;4936628;29;20244;-61
2022/03/29 06:05:43;;;;;;;19.27;3.70;;;7.10;99.90;;;;;;4919328;29;20255;-61
2022/03/29 06:08:12;;;;;;;16.30;3.57;;;6.90;99.90;;;;;;4917331;29;20308;-61
2022/03/29 06:10:41;;;;;;;17.23;4.10;;;7.00;99.90;;;;;;4916704;29;20244;-61
2022/03/29 06:13:11;;;;;;;16.17;3.40;;;7.10;99.90;;;;;;4916501;29;20257;-61
2022/03/29 06:15:39;;;;;;;20.27;3.87;;;7.10;99.90;;;;;;4914519;29;20232;-61
2022/03/29 06:18:08;;;;;;;16.27;3.80;;;7.00;99.90;;;;;;4917279;29;20244;-61
2022/03/29 06:20:36;;;;;;;15.00;3.37;;;7.00;99.90;;;;;;4929937;29;20228;-61
2022/03/29 06:23:05;;;;;;;17.83;3.33;;;7.00;99.90;;;;;;4927236;29;20244;-61
2022/03/29 06:25:34;;;;;;;19.40;3.30;;;7.10;99.90;;;;;;4915790;29;20295;-61
2022/03/29 06:28:04;;;;;;;16.43;4.07;;;7.10;99.90;;;;;;4916836;29;20244;-61
2022/03/29 06:30:32;;;;;;;12.87;3.50;;;7.10;99.90;;;;;;4916423;29;20374;-61
2022/03/29 06:33:00;;;;;;;18.00;3.80;;;7.10;99.90;;;;;;4916674;29;20646;-61
2022/03/29 06:35:30;;;;;;;16.67;3.83;;;7.00;99.90;;;;;;4916575;29;20243;-61
2022/03/29 06:37:59;;;;;;;18.40;4.27;;;7.10;99.90;;;;;;4923508;29;20773;-61
2022/03/29 06:40:29;;;;;;;14.53;3.50;;;7.00;99.90;;;;;;4926751;29;20239;-62
2022/03/29 06:42:57;;;;;;;14.80;3.57;;;7.10;99.90;;;;;;4925663;29;20721;-61
2022/03/29 06:45:28;;;;;;;15.63;3.00;;;7.30;99.90;;;;;;4924851;29;20237;-61
2022/03/29 06:47:57;;;;;;;17.57;3.70;;;7.30;99.90;;;;;;4916276;29;20248;-61
2022/03/29 06:50:26;;;;;;;13.60;2.97;;;7.40;99.90;;;;;;4916058;29;20240;-61
2022/03/29 06:52:56;;;;;;;18.40;3.70;;;7.40;99.90;;;;;;4916542;29;20738;-61
2022/03/29 06:55:28;;;;;;;14.40;3.50;;;7.40;99.90;;;;;;4924709;29;20240;-61
2022/03/29 06:57:56;;;;;;;20.80;3.30;;;7.50;99.90;;;;;;4916696;29;20248;-61
2022/03/29 07:00:25;;;;;;;16.10;3.23;;;7.60;99.90;;;;;;4924039;29;20268;-61
2022/03/29 07:02:54;;;;;;;16.97;3.30;;;7.50;99.90;;;;;;4925063;29;20259;-62
2022/03/29 07:05:23;;;;;;;18.37;3.47;;;7.40;99.90;;;;;;4924101;29;20760;-61
2022/03/29 07:07:51;;;;;;;14.70;3.10;;;7.40;99.90;;;;;;4929109;29;20237;-62
2022/03/29 07:13:06;;;;;;;15.37;3.50;;;7.40;99.90;;;;;;4916214;29;20717;-61
2022/03/29 07:15:34;;;;;;;19.83;3.50;;;7.50;99.90;;;;;;4915947;29;20240;-61
2022/03/29 07:18:05;;;;;;;12.37;2.90;;;7.60;99.90;;;;;;4915722;29;20249;-60
2022/03/29 07:20:34;;;;;;;18.73;3.20;;;7.70;99.90;;;;;;4915302;29;20296;-61
2022/03/29 07:23:02;;;;;;;15.13;2.90;;;7.80;99.90;;;;;;4916067;29;20243;-61
2022/03/29 07:25:32;;;;;;;13.53;3.27;;;7.90;99.90;;;;;;4927160;29;20237;-61
2022/03/29 07:28:01;;;;;;;15.63;3.67;;;8.00;99.90;;;;;;4915371;29;20232;-61
2022/03/29 07:30:29;;;;;;;17.57;3.40;;;8.10;99.90;;;;;;4914137;29;20252;-61
2022/03/29 07:32:58;;;;;;;17.80;3.00;;;8.10;99.90;;;;;;4915912;29;20248;-61
2022/03/29 07:35:29;;;;;;;16.63;2.83;;;8.10;99.90;;;;;;4923546;29;20320;-61
2022/03/29 07:37:58;;;;;;;15.07;2.47;;;8.00;99.90;;;;;;4929476;29;20248;-61
2022/03/29 07:40:31;;;;;;;14.17;2.97;;;7.90;99.90;;;;;;4919514;29;20735;-61
2022/03/29 07:42:59;;;;;;;10.90;2.90;;;8.00;99.90;;;;;;4915450;29;20319;-61
2022/03/29 07:45:28;;;;;;;9.60;2.17;;;7.90;99.90;;;;;;4922959;29;20302;-61
2022/03/29 07:47:57;;;;;;;12.20;2.10;;;7.70;99.90;;;;;;4929171;29;20244;-61
2022/03/29 07:50:47;;;;;;;16.23;2.50;;;7.90;99.90;;;;;;4921301;29;20251;-61
2022/03/29 07:53:15;;;;;;;11.17;2.27;;;8.00;99.90;;;;;;4931620;29;20601;-61
2022/03/29 07:55:43;;;;;;;11.53;2.97;;;8.00;99.90;;;;;;4924888;29;20748;-61
2022/03/29 07:58:19;;;;;;;12.13;2.40;;;8.00;99.90;;;;;;4931447;29;20239;-61
2022/03/29 08:00:50;;;;;;;12.03;2.40;;;8.00;99.90;;;;;;4924244;29;20236;-61
2022/03/29 08:03:21;;;;;;;12.00;2.57;;;8.10;99.90;;;;;;4918223;29;20236;-60
2022/03/29 08:05:51;;;;;;;11.53;1.97;;;8.20;99.90;;;;;;4923060;29;20240;-61
2022/03/29 08:08:20;;;;;;;10.77;2.10;;;8.40;99.90;;;;;;4931845;29;20275;-61
2022/03/29 08:10:49;;;;;;;11.67;2.37;;;8.40;99.90;;;;;;4923779;29;20241;-61
2022/03/29 08:13:18;;;;;;;11.83;2.20;;;8.30;99.90;;;;;;4931482;29;20271;-61
2022/03/29 08:15:48;;;;;;;8.07;2.37;;;8.30;99.90;;;;;;4924088;29;20252;-61
2022/03/29 08:18:17;;;;;;;12.33;2.33;;;8.50;99.90;;;;;;4931208;29;20243;-61
2022/03/29 08:20:45;;;;;;;13.47;2.60;;;8.70;99.90;;;;;;4923915;29;20244;-61
2022/03/29 08:23:15;;;;;;;13.33;2.30;;;8.50;99.90;;;;;;4914966;29;20705;-61
2022/03/29 08:25:44;;;;;;;8.73;2.10;;;8.60;99.90;;;;;;4922406;29;20236;-61
2022/03/29 08:28:14;;;;;;;10.47;2.20;;;8.90;99.90;;;;;;4930393;29;20228;-61
2022/03/29 08:30:42;;;;;;;14.90;2.30;;;9.20;99.90;;;;;;4922581;29;20243;-61
2022/03/29 08:33:11;;;;;;;14.00;2.63;;;9.30;99.90;;;;;;4918320;29;20244;-61
2022/03/29 08:35:42;;;;;;;10.47;2.07;;;9.10;99.90;;;;;;4931003;29;20236;-61
2022/03/29 08:38:10;;;;;;;9.57;2.20;;;8.70;99.90;;;;;;4933688;29;20332;-60
2022/03/29 08:40:57;;;;;;;9.40;2.30;;;8.50;99.90;;;;;;4922657;29;20263;-62
2022/03/29 08:43:27;;;;;;;11.40;2.00;;;8.90;99.90;;;;;;4923276;29;20708;-61
2022/03/29 08:45:57;;;;;;;10.97;2.37;;;8.80;99.90;;;;;;4922226;29;20326;-61
2022/03/29 08:48:27;;;;;;;9.60;1.97;;;8.80;99.90;;;;;;4930756;29;20236;-60
2022/03/29 08:50:57;;;;;;;7.90;2.20;;;8.90;99.90;;;;;;4914581;29;20236;-61
2022/03/29 08:53:48;;;;;;;9.27;1.70;;;8.80;99.90;;;;;;4914169;29;20298;-61
2022/03/29 08:56:19;;;;;;;11.03;1.80;;;8.60;99.90;;;;;;4923058;29;20736;-60
2022/03/29 08:58:48;;;;;;;8.87;1.97;;;8.90;99.90;;;;;;4931480;29;20268;-60
2022/03/29 09:01:19;;;;;;;10.70;1.67;;;9.10;99.90;;;;;;4922833;29;20319;-60
2022/03/29 09:04:03;;;;;;;6.43;1.67;;;9.40;99.90;;;;;;4921808;29;20236;-60
2022/03/29 09:06:32;;;;;;;8.57;1.83;;;9.50;99.90;;;;;;4924125;29;20241;-61
2022/03/29 09:09:00;;;;;;;11.07;1.77;;;9.40;99.90;;;;;;4929635;29;20739;-61
2022/03/29 09:11:41;;;;;;;11.20;2.23;;;9.00;99.90;;;;;;4923674;29;20240;-61
2022/03/29 09:14:09;;;;;;;8.53;1.80;;;8.90;99.90;;;;;;4915141;29;20287;-61
2022/03/29 09:16:38;;;;;;;10.63;2.03;;;9.10;99.90;;;;;;4913665;29;20315;-60
2022/03/29 09:19:09;;;;;;;10.90;1.97;;;9.60;99.90;;;;;;4916729;29;20650;-60
2022/03/29 09:21:42;;;;;;;10.07;2.03;;;9.90;99.90;;;;;;4921756;29;20241;-61
2022/03/29 09:24:12;;;;;;;8.17;1.70;;;9.80;99.90;;;;;;4914085;29;20308;-60
2022/03/29 09:26:43;;;;;;;9.00;1.80;;;10.00;99.90;;;;;;4907993;29;20236;-61
2022/03/29 09:29:20;;;;;;;7.53;1.83;;;9.70;99.90;;;;;;4913744;29;20308;-61
2022/03/29 09:32:04;;;;;;;13.60;2.17;;;9.30;99.90;;;;;;4921614;29;20245;-61
2022/03/29 09:34:33;;;;;;;6.50;1.60;;;9.40;99.90;;;;;;4916488;29;20796;-61
2022/03/29 09:37:04;;;;;;;6.13;1.80;;;9.90;99.90;;;;;;4925229;29;20331;-60
2022/03/29 09:39:35;;;;;;;8.60;1.60;;;10.30;99.90;;;;;;4927359;29;20312;-61
2022/03/29 09:42:09;;;;;;;8.37;1.73;;;10.50;99.90;;;;;;4924720;29;20248;-60
2022/03/29 09:44:44;;;;;;;6.57;2.07;;;10.40;99.90;;;;;;4916952;29;20243;-60
2022/03/29 09:47:14;;;;;;;6.73;1.73;;;9.90;99.90;;;;;;4924940;29;20713;-61
2022/03/29 09:49:54;;;;;;;9.60;1.70;;;9.80;99.90;;;;;;4925473;29;20354;-60
2022/03/29 09:52:24;;;;;;;7.90;1.80;;;10.20;99.90;;;;;;4924532;29;20255;-60
2022/03/29 09:55:09;;;;;;;6.93;1.57;;;10.60;99.90;;;;;;4927655;29;20247;-60
2022/03/29 09:57:41;;;;;;;8.13;1.73;;;11.00;99.90;;;;;;4917130;29;20654;-60
2022/03/29 10:00:11;;;;;;;6.47;1.47;;;10.60;99.90;;;;;;4920249;29;20654;-60
2022/03/29 10:02:45;;;;;;;8.40;2.33;;;10.20;99.90;;;;;;4913608;29;20331;-60
2022/03/29 10:05:16;;;;;;;4.10;1.53;;;10.00;99.90;;;;;;4921568;29;20696;-61
2022/03/29 10:07:45;;;;;;;5.63;1.80;;;9.60;99.90;;;;;;4925473;29;20261;-61
2022/03/29 10:10:13;;;;;;;6.43;1.83;;;9.50;99.90;;;;;;4927021;29;20236;-60
2022/03/29 10:12:43;;;;;;;7.53;1.90;;;9.80;99.90;;;;;;4925111;29;20239;-60
2022/03/29 10:15:31;;;;;;;7.43;1.67;;;10.40;99.90;;;;;;4916770;29;20272;-60
2022/03/29 10:18:00;;;;;;;4.57;1.70;;;10.40;99.90;;;;;;4913716;29;20908;-60
2022/03/29 10:20:29;;;;;;;4.67;1.47;;;10.30;99.90;;;;;;4924735;29;20236;-61
2022/03/29 10:22:58;;;;;;;8.43;1.87;;;10.30;99.90;;;;;;4917062;29;20240;-60
2022/03/29 10:25:28;;;;;;;7.80;1.67;;;10.70;99.90;;;;;;4924177;29;20300;-61
2022/03/29 10:28:00;;;;;;;6.50;1.50;;;11.00;99.90;;;;;;4930545;29;20240;-60
2022/03/29 10:30:32;;;;;;;7.60;1.57;;;11.40;99.90;;;;;;4928314;29;20326;-60
2022/03/29 10:33:16;;;;;;;5.30;1.73;;;11.40;99.90;;;;;;4931044;29;20276;-60
2022/03/29 10:36:09;;;;;;;6.27;1.90;;;10.80;99.90;;;;;;4926264;29;20413;-61
2022/03/29 10:38:59;;;;;;;8.63;1.77;;;10.40;99.90;;;;;;4898119;29;20360;-60
2022/03/29 10:41:54;;;;;;;11.70;2.00;;;10.30;99.90;;;;;;4926060;29;20670;-61
2022/03/29 10:44:24;;;;;;;6.90;1.70;;;9.90;99.90;;;;;;4923043;29;20233;-60
2022/03/29 10:46:54;;;;;;;8.27;1.77;;;9.70;99.90;;;;;;4927818;29;20244;-60
2022/03/29 10:49:24;;;;;;;9.30;2.20;;;10.00;99.90;;;;;;4930203;29;20319;-60
2022/03/29 10:51:55;;;;;;;9.00;2.00;;;10.70;99.90;;;;;;4926087;29;20242;-60
2022/03/29 10:54:31;;;;;;;8.77;1.97;;;10.90;99.90;;;;;;4930295;29;20248;-60
2022/03/29 10:57:02;;;;;;;7.93;1.80;;;11.00;99.90;;;;;;4927413;29;20245;-60
2022/03/29 10:59:32;;;;;;;6.87;1.67;;;11.30;99.90;;;;;;4929864;29;20249;-60
2022/03/29 11:02:20;;;;;;;6.23;2.00;;;11.40;99.90;;;;;;4923211;29;20241;-60
2022/03/29 11:05:05;;;;;;;8.03;1.73;;;10.80;99.90;;;;;;4920205;29;20251;-60
2022/03/29 11:07:35;;;;;;;9.63;1.87;;;11.00;99.90;;;;;;4926790;29;20605;-60
2022/03/29 11:10:12;;;;;;;7.30;1.70;;;11.00;99.90;;;;;;4929788;29;20276;-60
2022/03/29 11:12:46;;;;;;;5.30;1.50;;;11.00;99.90;;;;;;4920329;29;20672;-60
2022/03/29 11:15:49;;;;;;;5.17;1.23;;;10.90;99.90;;;;;;4931071;29;20240;-60
2022/03/29 11:18:48;;;;;;;5.80;1.70;;;10.80;99.90;;;;;;4923532;29;20414;-60
2022/03/29 11:21:36;;;;;;;10.67;1.93;;;11.10;99.90;;;;;;4913522;29;20237;-60
2022/03/29 11:24:07;;;;;;;6.77;1.90;;;11.40;99.90;;;;;;4914570;29;20282;-59
2022/03/29 11:26:36;;;;;;;5.37;1.83;;;12.00;99.90;;;;;;4926755;29;20295;-60
2022/03/29 11:29:07;;;;;;;8.97;1.90;;;12.20;99.90;;;;;;4930723;29;20242;-61
2022/03/29 11:31:39;;;;;;;7.10;1.60;;;12.30;99.90;;;;;;4925627;29;20270;-60
2022/03/29 11:34:11;;;;;;;6.07;1.93;;;12.20;99.90;;;;;;4919611;29;20241;-60
2022/03/29 11:36:41;;;;;;;6.03;1.77;;;11.50;99.90;;;;;;4923578;29;20244;-60
2022/03/29 11:39:21;;;;;;;5.23;1.10;;;11.20;99.90;;;;;;4915791;29;20289;-60
2022/03/29 11:41:51;;;;;;;9.40;1.60;;;11.30;99.90;;;;;;4917302;29;20335;-60
2022/03/29 11:44:23;;;;;;;5.00;1.73;;;11.40;99.90;;;;;;4916535;29;20244;-60
2022/03/29 11:46:54;;;;;;;4.43;1.50;;;11.10;99.90;;;;;;4926924;29;20691;-60
2022/03/29 11:49:26;;;;;;;7.67;1.60;;;10.80;99.90;;;;;;4928946;29;20253;-60
2022/03/29 11:52:17;;;;;;;6.63;1.53;;;10.70;99.90;;;;;;4926520;29;20252;-59
2022/03/29 11:54:48;;;;;;;8.80;1.87;;;10.40;99.90;;;;;;4923609;29;20770;-60
2022/03/29 11:57:21;;;;;;;4.03;1.67;;;10.50;99.90;;;;;;4926616;29;20243;-60
2022/03/29 11:59:50;;;;;;;5.87;1.47;;;10.80;99.90;;;;;;4929339;29;20245;-60
2022/03/29 12:02:27;;;;;;;6.73;1.80;;;10.60;99.90;;;;;;4926111;29;20271;-60
2022/03/29 12:04:56;;;;;;;10.03;1.53;;;10.40;99.90;;;;;;4923676;29;20245;-60
2022/03/29 12:07:36;;;;;;;7.40;1.77;;;10.40;99.90;;;;;;4915257;29;20608;-60
2022/03/29 12:10:05;;;;;;;8.63;1.50;;;10.40;99.90;;;;;;4921681;29;20659;-60
2022/03/29 12:12:33;;;;;;;7.90;1.53;;;10.50;99.90;;;;;;4926049;29;20328;-60
2022/03/29 12:15:02;;;;;;;10.10;2.30;;;10.60;99.90;;;;;;4931765;29;20236;-59
2022/03/29 12:17:33;;;;;;;8.77;1.80;;;11.00;99.90;;;;;;4934075;29;20285;-60
2022/03/29 12:20:02;;;;;;;9.00;1.73;;;11.00;99.90;;;;;;4921322;29;20241;-60
2022/03/29 12:22:30;;;;;;;5.80;1.67;;;10.90;99.90;;;;;;4913462;29;20233;-60
2022/03/29 12:24:59;;;;;;;8.37;1.77;;;10.70;99.90;;;;;;4925811;29;20239;-60
2022/03/29 12:27:27;;;;;;;5.37;1.90;;;10.60;99.90;;;;;;4915446;29;20597;-60
2022/03/29 12:30:01;;;;;;;5.73;1.60;;;10.60;99.90;;;;;;4925425;29;20238;-60
2022/03/29 12:32:32;;;;;;;6.40;1.70;;;10.60;99.90;;;;;;4914717;29;20700;-60
2022/03/29 12:35:05;;;;;;;7.53;1.73;;;10.70;99.90;;;;;;4914423;29;20328;-60
2022/03/29 12:37:34;;;;;;;8.07;1.93;;;10.50;99.90;;;;;;4924922;29;20240;-60
2022/03/29 12:40:10;;;;;;;6.40;1.47;;;10.20;99.90;;;;;;4925449;29;20246;-60
2022/03/29 12:42:38;;;;;;;7.37;1.60;;;10.30;99.90;;;;;;4925628;29;20246;-60
2022/03/29 12:45:08;;;;;;;6.80;1.83;;;10.30;99.90;;;;;;4921364;29;20735;-59
2022/03/29 12:47:38;;;;;;;9.67;1.83;;;10.20;99.90;;;;;;4933354;29;20242;-60
2022/03/29 12:50:07;;;;;;;4.67;1.50;;;10.10;99.90;;;;;;4928207;29;20624;-61
2022/03/29 12:52:40;;;;;;;8.40;1.80;;;10.10;99.90;;;;;;4925346;29;20674;-60
2022/03/29 12:55:13;;;;;;;6.37;1.93;;;10.30;99.90;;;;;;4928194;29;20268;-60
2022/03/29 12:57:43;;;;;;;4.83;1.60;;;10.60;99.90;;;;;;4918638;29;20251;-60
2022/03/29 13:00:14;;;;;;;6.57;1.70;;;10.40;99.90;;;;;;4928319;29;20278;-60
2022/03/29 13:02:46;;;;;;;6.83;1.67;;;10.20;99.90;;;;;;4918914;29;20237;-60
2022/03/29 13:05:16;;;;;;;10.43;1.70;;;10.00;99.90;;;;;;4926021;29;20242;-60
2022/03/29 13:07:48;;;;;;;6.50;2.20;;;9.90;99.90;;;;;;4920802;29;20841;-60
2022/03/29 13:10:18;;;;;;;7.80;2.33;;;9.80;99.90;;;;;;4921898;29;20708;-60
2022/03/29 13:12:52;;;;;;;6.37;1.83;;;9.80;99.90;;;;;;4926401;29;20243;-60